createdAt,value
2017-10-07T00:04:05.956Z,101560.28
2017-10-07T00:09:07.892Z,101553.06
2017-10-07T00:14:09.946Z,101555.37
2017-10-07T00:19:11.953Z,101546.27
2017-10-07T00:24:13.983Z,101548.40
2017-10-07T00:29:16.032Z,101534.34
2017-10-07T00:34:18.606Z,101543.64
2017-10-07T00:39:21.199Z,101535.11
2017-10-07T00:44:23.827Z,101518.11
2017-10-07T00:49:25.852Z,101533.61
2017-10-07T00:54:28.744Z,101529.28
2017-10-07T00:59:30.853Z,101523.31
2017-10-07T01:04:33.421Z,101512.30
2017-10-07T01:09:36.496Z,101504.17
2017-10-07T01:14:39.428Z,101495.14
2017-10-07T01:19:41.776Z,101501.86
2017-10-07T01:24:43.821Z,101496.61
2017-10-07T01:29:46.411Z,101493.02
2017-10-07T01:34:49.889Z,101484.60
2017-10-07T01:39:53.896Z,101486.01
2017-10-07T01:44:57.561Z,101462.52
2017-10-07T01:50:00.242Z,101482.13
2017-10-07T01:55:05.185Z,101476.12
2017-10-07T02:00:11.962Z,101471.21
2017-10-07T02:05:19.262Z,101478.22
2017-10-07T02:10:22.829Z,101471.84
2017-10-07T02:15:32.165Z,101470.33
2017-10-07T02:20:36.950Z,101472.42
2017-10-07T02:25:42.909Z,101480.08
2017-10-07T02:30:49.968Z,101473.12
2017-10-07T02:35:53.165Z,101472.59
2017-10-07T02:41:00.958Z,101471.13
2017-10-07T02:46:08.469Z,101472.11
2017-10-07T02:51:16.368Z,101475.79
2017-10-07T02:56:19.378Z,101469.34
2017-10-07T03:01:26.800Z,101472.45
2017-10-07T03:06:29.485Z,101471.52
2017-10-07T03:11:32.138Z,101460.18
2017-10-07T03:16:34.791Z,101468.49
2017-10-07T03:21:36.703Z,101469.00
2017-10-07T03:26:38.637Z,101476.55
2017-10-07T03:31:40.539Z,101466.25
2017-10-07T03:36:42.474Z,101460.95
2017-10-07T03:41:44.476Z,101460.45
2017-10-07T03:46:46.388Z,101460.23
2017-10-07T03:51:48.328Z,101452.25
2017-10-07T03:56:50.223Z,101454.86
2017-10-07T04:01:56.638Z,101447.65
2017-10-07T04:06:58.763Z,101443.16
2017-10-07T04:12:00.744Z,101449.88
2017-10-07T04:17:02.749Z,101446.81
2017-10-07T04:22:04.699Z,101444.19
2017-10-07T04:27:06.611Z,101447.09
2017-10-07T04:32:08.540Z,101443.09
2017-10-07T04:37:10.511Z,101432.59
2017-10-07T04:42:12.562Z,101425.20
2017-10-07T04:47:14.571Z,101423.95
2017-10-07T04:52:17.339Z,101421.42
2017-10-07T04:57:20.023Z,101419.78
2017-10-07T05:02:22.047Z,101431.66
2017-10-07T05:07:24.725Z,101426.69
2017-10-07T05:12:26.705Z,101429.03
2017-10-07T05:17:28.699Z,101418.80
2017-10-07T05:22:33.431Z,101416.17
2017-10-07T05:27:45.698Z,101412.50
2017-10-07T05:32:58.345Z,101399.84
2017-10-07T05:38:08.939Z,101398.71
2017-10-07T05:43:19.510Z,101391.50
2017-10-07T05:48:22.537Z,101388.32
2017-10-07T05:53:37.665Z,101384.59
2017-10-07T05:58:40.546Z,101380.16
2017-10-07T06:03:42.444Z,101368.16
2017-10-07T06:08:45.115Z,101365.77
2017-10-07T06:13:47.792Z,101363.48
2017-10-07T06:18:49.864Z,101354.12
2017-10-07T06:23:51.858Z,101352.49
2017-10-07T06:28:53.878Z,101347.57
2017-10-07T06:33:55.875Z,101340.97
2017-10-07T06:38:58.080Z,101340.34
2017-10-07T06:44:00.068Z,101336.61
2017-10-07T06:49:02.006Z,101331.73
2017-10-07T06:54:04.779Z,101332.36
2017-10-07T06:59:06.729Z,101324.66
2017-10-07T07:04:09.417Z,101322.39
2017-10-07T07:09:11.322Z,101310.05
2017-10-07T07:14:13.401Z,101302.70
2017-10-07T07:19:15.430Z,101292.52
2017-10-07T07:24:17.379Z,101286.31
2017-10-07T07:29:20.081Z,101286.11
2017-10-07T07:34:22.139Z,101286.44
2017-10-07T07:39:24.057Z,101272.47
2017-10-07T07:44:27.877Z,101259.91
2017-10-07T07:49:30.600Z,101254.84
2017-10-07T07:54:33.309Z,101245.45
2017-10-07T07:59:35.367Z,101238.27
2017-10-07T08:04:37.277Z,101237.02
2017-10-07T08:09:39.942Z,101225.00
2017-10-07T08:14:42.393Z,101207.14
2017-10-07T08:19:44.947Z,101211.02
2017-10-07T08:24:47.723Z,101207.34
2017-10-07T08:29:49.653Z,101201.40
2017-10-07T08:34:51.759Z,101190.18
2017-10-07T08:39:53.710Z,101187.91
2017-10-07T08:44:55.658Z,101186.63
2017-10-07T08:49:57.600Z,101164.09
2017-10-07T08:54:59.503Z,101153.47
2017-10-07T09:00:02.207Z,101158.84
2017-10-07T09:05:04.108Z,101144.92
2017-10-07T09:10:06.004Z,101135.89
2017-10-07T09:15:08.008Z,101140.80
2017-10-07T09:20:10.693Z,101130.30
2017-10-07T09:25:12.593Z,101111.77
2017-10-07T09:30:14.520Z,101096.23
2017-10-07T09:35:17.172Z,101074.42
2017-10-07T09:40:19.100Z,101071.95
2017-10-07T09:45:21.120Z,101059.05
2017-10-07T09:50:23.067Z,101053.64
2017-10-07T09:55:24.987Z,101033.66
2017-10-07T10:00:27.685Z,101043.30
2017-10-07T10:05:29.646Z,101046.19
2017-10-07T10:10:31.585Z,101042.66
2017-10-07T10:15:34.537Z,101045.07
2017-10-07T10:20:36.477Z,101053.83
2017-10-07T10:25:39.155Z,101053.28
2017-10-07T10:30:41.049Z,101034.37
2017-10-07T10:35:42.944Z,101039.61
2017-10-07T10:40:44.850Z,101021.64
2017-10-07T10:45:46.779Z,101004.96
2017-10-07T10:50:48.707Z,100998.05
2017-10-07T10:55:50.626Z,100984.16
2017-10-07T11:00:52.600Z,100975.91
2017-10-07T11:05:54.478Z,100965.52
2017-10-07T11:10:57.116Z,100951.92
2017-10-07T11:15:59.109Z,100932.06
2017-10-07T11:21:01.179Z,100926.33
2017-10-07T11:26:03.190Z,100911.36
2017-10-07T11:31:05.151Z,100894.79
2017-10-07T11:36:07.192Z,100887.22
2017-10-07T11:41:09.163Z,100879.55
2017-10-07T11:46:11.919Z,100864.41
2017-10-07T11:51:14.030Z,100862.05
2017-10-07T11:56:17.009Z,100846.27
2017-10-07T12:01:20.153Z,100838.14
2017-10-07T12:06:23.550Z,100829.20
2017-10-07T12:11:26.880Z,100818.84
2017-10-07T12:16:29.126Z,100815.40
2017-10-07T12:21:31.112Z,100802.81
2017-10-07T12:26:34.856Z,100792.33
2017-10-07T12:31:36.834Z,100781.08
2017-10-07T12:36:38.771Z,100776.45
2017-10-07T12:41:40.715Z,100750.07
2017-10-07T12:46:42.611Z,100738.06
2017-10-07T12:51:45.303Z,100737.61
2017-10-07T12:56:47.215Z,100734.39
2017-10-07T13:01:49.978Z,100729.17
2017-10-07T13:06:52.695Z,100723.12
2017-10-07T13:11:54.599Z,100712.36
2017-10-07T13:16:56.535Z,100700.59
2017-10-07T13:21:58.510Z,100698.40
2017-10-07T13:27:00.429Z,100678.63
2017-10-07T13:32:03.192Z,100682.84
2017-10-07T13:37:05.160Z,100667.13
2017-10-07T13:42:07.079Z,100669.53
2017-10-07T13:47:09.635Z,100651.97
2017-10-07T13:52:13.272Z,100655.36
2017-10-07T13:57:16.368Z,100639.75
2017-10-07T14:02:18.733Z,100633.58
2017-10-07T14:07:20.653Z,100624.94
2017-10-07T14:12:23.347Z,100623.30
2017-10-07T14:17:25.305Z,100621.09
2017-10-07T14:22:27.242Z,100605.90
2017-10-07T14:27:29.194Z,100596.55
2017-10-07T14:32:31.105Z,100590.22
2017-10-07T14:37:33.000Z,100579.95
2017-10-07T14:42:36.379Z,100578.31
2017-10-07T14:47:38.480Z,100573.66
2017-10-07T14:52:41.286Z,100566.50
2017-10-07T14:57:44.558Z,100563.73
2017-10-07T15:02:47.096Z,100556.59
2017-10-07T15:07:50.448Z,100553.98
2017-10-07T15:12:52.420Z,100557.25
2017-10-07T15:17:55.109Z,100546.66
2017-10-07T15:22:57.151Z,100540.89
2017-10-07T15:27:59.219Z,100548.75
2017-10-07T15:33:01.304Z,100541.90
2017-10-07T15:38:03.996Z,100523.94
2017-10-07T15:43:05.939Z,100527.42
2017-10-07T15:48:11.767Z,100524.11
2017-10-07T15:53:14.562Z,100513.16
2017-10-07T15:58:16.494Z,100505.17
2017-10-07T16:03:18.599Z,100505.22
2017-10-07T16:08:21.273Z,100494.58
2017-10-07T16:13:23.228Z,100499.17
2017-10-07T16:18:25.895Z,100486.02
2017-10-07T16:23:28.559Z,100477.58
2017-10-07T16:28:31.283Z,100484.01
2017-10-07T16:33:33.219Z,100482.52
2017-10-07T16:38:35.895Z,100473.92
2017-10-07T16:43:38.459Z,100458.36
2017-10-07T16:48:40.570Z,100446.30
2017-10-07T16:53:42.494Z,100443.55
2017-10-07T16:58:44.479Z,100439.03
2017-10-07T17:03:46.538Z,100433.16
2017-10-07T17:08:49.254Z,100414.48
2017-10-07T17:13:51.167Z,100418.66
2017-10-07T17:18:53.938Z,100401.30
2017-10-07T17:23:56.627Z,100399.73
2017-10-07T17:29:00.632Z,100385.55
2017-10-07T17:34:02.565Z,100388.86
2017-10-07T17:39:04.578Z,100380.97
2017-10-07T17:44:07.882Z,100382.36
2017-10-07T17:49:10.425Z,100384.64
2017-10-07T17:54:14.425Z,100381.66
2017-10-07T17:59:17.912Z,100372.70
2017-10-07T18:04:21.788Z,100375.34
2017-10-07T18:09:24.934Z,100384.94
2017-10-07T18:14:28.199Z,100368.25
2017-10-07T18:19:31.403Z,100377.28
2017-10-07T18:24:34.950Z,100373.01
2017-10-07T18:29:38.337Z,100373.42
2017-10-07T18:34:41.533Z,100369.92
2017-10-07T18:39:44.831Z,100380.50
2017-10-07T18:50:17.359Z,100378.41
2017-10-07T18:55:19.264Z,100390.97
2017-10-07T19:00:22.009Z,100384.04
2017-10-07T19:05:24.687Z,100379.84
2017-10-07T19:10:27.334Z,100388.50
2017-10-07T19:15:29.808Z,100384.75
2017-10-07T19:20:33.195Z,100382.01
2017-10-07T19:25:35.862Z,100380.81
2017-10-07T19:30:38.535Z,100372.66
2017-10-07T19:35:40.435Z,100380.47
2017-10-07T19:40:42.329Z,100372.92
2017-10-07T19:45:44.320Z,100376.05
2017-10-07T19:50:46.215Z,100366.43
2017-10-07T19:55:48.526Z,100365.98
2017-10-07T20:00:50.616Z,100375.36
2017-10-07T20:05:52.507Z,100372.14
2017-10-07T20:10:54.762Z,100360.70
2017-10-07T20:15:57.101Z,100364.83
2017-10-07T20:21:00.236Z,100348.02
2017-10-07T20:26:03.187Z,100349.94
2017-10-07T20:31:05.092Z,100342.92
2017-10-07T20:36:07.775Z,100352.27
2017-10-07T20:41:09.674Z,100349.10
2017-10-07T20:46:11.601Z,100345.36
2017-10-07T20:51:13.559Z,100345.20
2017-10-07T20:56:15.495Z,100351.27
2017-10-07T21:01:17.466Z,100343.09
2017-10-07T21:06:19.346Z,100329.25
2017-10-07T21:11:21.998Z,100340.25
2017-10-07T21:16:24.654Z,100346.47
2017-10-07T21:21:28.224Z,100340.63
2017-10-07T21:26:30.831Z,100342.37
2017-10-07T21:31:32.766Z,100342.01
2017-10-07T21:36:34.843Z,100345.78
2017-10-07T21:41:36.846Z,100346.98
2017-10-07T21:46:38.806Z,100344.22
2017-10-07T21:51:41.600Z,100345.24
2017-10-07T21:56:43.516Z,100340.67
2017-10-07T22:01:46.505Z,100339.21
2017-10-07T22:06:48.427Z,100340.58
2017-10-07T22:11:51.163Z,100340.23
2017-10-07T22:16:53.042Z,100335.78
2017-10-07T22:21:55.694Z,100332.23
2017-10-07T22:26:57.614Z,100329.19
2017-10-07T22:31:59.527Z,100340.41
2017-10-07T22:37:01.500Z,100336.89
2017-10-07T22:42:03.403Z,100342.36
2017-10-07T22:47:05.319Z,100351.70
2017-10-07T22:52:07.906Z,100353.73
2017-10-07T22:57:10.187Z,100363.50
2017-10-07T23:02:12.456Z,100358.25
2017-10-07T23:07:14.619Z,100356.22
2017-10-07T23:12:17.058Z,100355.59
2017-10-07T23:17:19.859Z,100366.18
2017-10-07T23:22:33.256Z,100365.75
2017-10-07T23:27:35.811Z,100376.52
2017-10-07T23:32:38.885Z,100399.20
2017-10-07T23:37:40.810Z,100376.66
2017-10-07T23:42:42.795Z,100393.52
2017-10-07T23:47:44.708Z,100395.89
2017-10-07T23:52:46.629Z,100393.80
2017-10-07T23:57:49.269Z,100392.71
